Upsala, Canada
Current Conditions -  °F | °C
As of 2:00 PM on Friday 24 Oct 2014 (Local Time) from CYQT Reporting Station
Broken Clouds Broken Clouds  
Wind Chill: 63°   Ceiling: 19000
Heat Index: 63°   Visibility: 20mi
Dew Point: 48°   Wind: 7mph
Humidity: 59%   Direction: 180°S
Pressure: 29.73"   Gusts: NA
Location:  49.04°N, 90.47°W
Report Text: CYQT 241900Z 18006KT 120V210 20SM FEW120 BKN190 BKN260 17/09 A2973 RMK AC1AC6CI1 CI TR SLP072 DENSITY ALT 1200FT
Loading
Personal Weather Stations






























Interactive Weather Map
Tropical Storm Tracking
New forecast layout! Learn more

10-Day Weather Forecast

Advertisements
Track Severe Weather on mobile